Terminal Aerodrome Forecast
Issued by NWS Wakefield, VA

Home | Current Version | Previous Version | Text Only | Print | Product List | Glossary On
Versions: 1 2 3 4 5 6 7 8 9 10 11 12 13 14 15 16
000
FTUS41 KAKQ 170500
TAFECG
TAF
KECG 170538Z 1706/1806 04012KT P6SM SKC
     FM170900 04012G18KT P6SM SCT030
     FM171300 04016G23KT P6SM BKN030
     FM180000 04013KT P6SM BKN030=

USA.gov is the U.S. government's official web portal to all federal, state and local government web resources and services.